Weather at San Francisco VA Medical Center Heliport

Public forecast

Using degrees Fahrenheit for public forecast. Weather courtesy of forecast.io.

Closest aviation weather report (METAR) to San Francisco VA Medical Center Heliport

Closest report is San Francisco International Airport, 11.6 nm (21.6 km) SSE.

2024/05/29 08:56 (retrieved 4 minutes ago)

KSFO 290856Z 28010G22KT 10SM FEW200 13/08 A3008 RMK AO2 PK WND 30026/0801 SLP185 T01280083 52004

Closest aviation forecast (TAF) to San Francisco VA Medical Center Heliport

Closest forecast is San Francisco International Airport, 11.6 nm (21.6 km) SSE.

2024/05/29 09:48 Ammendment (retrieved 0 seconds ago)

TAF AMD KSFO 290846Z 2909/3012 27015KT P6SM SKC FM291400 27008KT P6SM SKC FM292000 28020G25KT P6SM SKC FM300500 28014KT P6SM SKC FM301100 29007KT P6SM SKC